sensor_id;sensor_type;location;lat;lon;timestamp;temperature;humidity
7204;DHT22;3643;52.460;13.322;2023-02-10T00:02:29;0.80;99.90
7204;DHT22;3643;52.460;13.322;2023-02-10T00:04:57;0.80;99.90
7204;DHT22;3643;52.460;13.322;2023-02-10T00:07:25;0.80;99.90
7204;DHT22;3643;52.460;13.322;2023-02-10T00:09:54;0.80;99.90
7204;DHT22;3643;52.460;13.322;2023-02-10T00:12:23;0.90;99.90
7204;DHT22;3643;52.460;13.322;2023-02-10T00:14:51;0.90;99.90
7204;DHT22;3643;52.460;13.322;2023-02-10T00:17:19;0.90;99.90
7204;DHT22;3643;52.460;13.322;2023-02-10T00:19:48;0.90;99.90
7204;DHT22;3643;52.460;13.322;2023-02-10T00:22:16;0.90;99.90
7204;DHT22;3643;52.460;13.322;2023-02-10T00:24:44;0.90;99.90
7204;DHT22;3643;52.460;13.322;2023-02-10T00:27:14;0.90;99.90
7204;DHT22;3643;52.460;13.322;2023-02-10T00:29:42;0.90;99.90
7204;DHT22;3643;52.460;13.322;2023-02-10T00:32:10;0.90;99.90
7204;DHT22;3643;52.460;13.322;2023-02-10T00:34:38;0.90;99.90
7204;DHT22;3643;52.460;13.322;2023-02-10T00:37:06;0.80;99.90
7204;DHT22;3643;52.460;13.322;2023-02-10T00:39:34;0.70;99.90
7204;DHT22;3643;52.460;13.322;2023-02-10T00:42:02;0.70;99.90
7204;DHT22;3643;52.460;13.322;2023-02-10T00:44:32;0.80;99.90
7204;DHT22;3643;52.460;13.322;2023-02-10T00:47:00;0.90;99.90
7204;DHT22;3643;52.460;13.322;2023-02-10T00:49:28;0.80;99.90
7204;DHT22;3643;52.460;13.322;2023-02-10T00:51:56;0.80;99.90
7204;DHT22;3643;52.460;13.322;2023-02-10T00:54:25;0.80;99.90
7204;DHT22;3643;52.460;13.322;2023-02-10T00:56:53;0.90;99.90
7204;DHT22;3643;52.460;13.322;2023-02-10T00:59:21;0.90;99.90
7204;DHT22;3643;52.460;13.322;2023-02-10T01:01:50;0.90;99.90
7204;DHT22;3643;52.460;13.322;2023-02-10T01:04:18;1.00;99.90
7204;DHT22;3643;52.460;13.322;2023-02-10T01:06:47;1.00;99.90
7204;DHT22;3643;52.460;13.322;2023-02-10T01:09:15;1.00;99.90
7204;DHT22;3643;52.460;13.322;2023-02-10T01:11:44;1.00;99.90
7204;DHT22;3643;52.460;13.322;2023-02-10T01:14:12;1.00;99.90
7204;DHT22;3643;52.460;13.322;2023-02-10T01:16:40;1.00;99.90
7204;DHT22;3643;52.460;13.322;2023-02-10T01:19:10;1.00;99.90
7204;DHT22;3643;52.460;13.322;2023-02-10T01:21:38;1.00;99.90
7204;DHT22;3643;52.460;13.322;2023-02-10T01:24:08;0.90;99.90
7204;DHT22;3643;52.460;13.322;2023-02-10T01:26:37;0.80;99.90
7204;DHT22;3643;52.460;13.322;2023-02-10T01:29:05;0.70;99.90
7204;DHT22;3643;52.460;13.322;2023-02-10T01:31:33;0.50;99.90
7204;DHT22;3643;52.460;13.322;2023-02-10T01:34:02;0.40;99.90
7204;DHT22;3643;52.460;13.322;2023-02-10T01:36:32;0.30;99.90
7204;DHT22;3643;52.460;13.322;2023-02-10T01:39:00;0.20;99.90
7204;DHT22;3643;52.460;13.322;2023-02-10T01:41:29;0.10;99.90
7204;DHT22;3643;52.460;13.322;2023-02-10T01:44:00;0.00;99.90
7204;DHT22;3643;52.460;13.322;2023-02-10T01:46:29;-0.10;99.90
7204;DHT22;3643;52.460;13.322;2023-02-10T01:49:01;-0.10;99.90
7204;DHT22;3643;52.460;13.322;2023-02-10T01:51:37;-0.20;99.90
7204;DHT22;3643;52.460;13.322;2023-02-10T01:54:09;-0.20;99.90
7204;DHT22;3643;52.460;13.322;2023-02-10T01:56:40;-0.20;99.90
7204;DHT22;3643;52.460;13.322;2023-02-10T01:59:09;-0.20;99.90
7204;DHT22;3643;52.460;13.322;2023-02-10T02:01:37;-0.20;99.90
7204;DHT22;3643;52.460;13.322;2023-02-10T02:04:06;-0.20;99.90
7204;DHT22;3643;52.460;13.322;2023-02-10T02:06:36;-0.20;99.90
7204;DHT22;3643;52.460;13.322;2023-02-10T02:09:05;-0.20;99.90
7204;DHT22;3643;52.460;13.322;2023-02-10T02:11:41;-0.30;99.90
7204;DHT22;3643;52.460;13.322;2023-02-10T02:14:24;-0.40;99.90
7204;DHT22;3643;52.460;13.322;2023-02-10T02:17:05;-0.30;99.90
7204;DHT22;3643;52.460;13.322;2023-02-10T02:20:04;-0.30;99.90
7204;DHT22;3643;52.460;13.322;2023-02-10T02:23:13;-0.40;99.90
7204;DHT22;3643;52.460;13.322;2023-02-10T02:29:17;0.00;99.90
7204;DHT22;3643;52.460;13.322;2023-02-10T02:31:57;-0.60;99.90
7204;DHT22;3643;52.460;13.322;2023-02-10T02:34:33;-0.60;99.90
7204;DHT22;3643;52.460;13.322;2023-02-10T02:37:08;-0.60;99.90
7204;DHT22;3643;52.460;13.322;2023-02-10T02:39:38;-0.60;99.90
7204;DHT22;3643;52.460;13.322;2023-02-10T02:42:18;-0.60;99.90
7204;DHT22;3643;52.460;13.322;2023-02-10T02:44:49;-0.60;99.90
7204;DHT22;3643;52.460;13.322;2023-02-10T02:47:31;-0.60;99.90
7204;DHT22;3643;52.460;13.322;2023-02-10T02:50:13;-0.60;99.90
7204;DHT22;3643;52.460;13.322;2023-02-10T02:53:01;-0.60;99.90
7204;DHT22;3643;52.460;13.322;2023-02-10T02:55:36;-0.60;99.90
7204;DHT22;3643;52.460;13.322;2023-02-10T02:58:11;-0.60;99.90
7204;DHT22;3643;52.460;13.322;2023-02-10T03:00:43;-0.60;99.90
7204;DHT22;3643;52.460;13.322;2023-02-10T03:03:14;-0.60;99.90
7204;DHT22;3643;52.460;13.322;2023-02-10T03:05:43;-0.60;99.90
7204;DHT22;3643;52.460;13.322;2023-02-10T03:08:12;-0.60;99.90
7204;DHT22;3643;52.460;13.322;2023-02-10T03:10:40;-0.60;99.90
7204;DHT22;3643;52.460;13.322;2023-02-10T03:13:09;-0.60;99.90
7204;DHT22;3643;52.460;13.322;2023-02-10T03:15:37;-0.70;99.90
7204;DHT22;3643;52.460;13.322;2023-02-10T03:18:05;-0.60;99.90
7204;DHT22;3643;52.460;13.322;2023-02-10T03:20:38;-0.60;99.90
7204;DHT22;3643;52.460;13.322;2023-02-10T03:23:06;-0.60;99.90
7204;DHT22;3643;52.460;13.322;2023-02-10T03:25:35;-0.60;99.90
7204;DHT22;3643;52.460;13.322;2023-02-10T03:28:03;-0.70;99.90
7204;DHT22;3643;52.460;13.322;2023-02-10T03:30:34;-0.60;99.90
7204;DHT22;3643;52.460;13.322;2023-02-10T03:33:03;-0.60;99.90
7204;DHT22;3643;52.460;13.322;2023-02-10T03:35:36;-0.60;99.90
7204;DHT22;3643;52.460;13.322;2023-02-10T03:38:07;-0.60;99.90
7204;DHT22;3643;52.460;13.322;2023-02-10T03:40:35;-0.60;99.90
7204;DHT22;3643;52.460;13.322;2023-02-10T03:43:06;-0.70;99.90
7204;DHT22;3643;52.460;13.322;2023-02-10T03:45:35;-0.60;99.90
7204;DHT22;3643;52.460;13.322;2023-02-10T03:48:05;-0.60;99.90
7204;DHT22;3643;52.460;13.322;2023-02-10T03:50:35;-0.50;99.90
7204;DHT22;3643;52.460;13.322;2023-02-10T03:53:04;-0.40;99.90
7204;DHT22;3643;52.460;13.322;2023-02-10T03:55:32;-0.40;99.90
7204;DHT22;3643;52.460;13.322;2023-02-10T03:58:01;-0.30;99.90
7204;DHT22;3643;52.460;13.322;2023-02-10T04:00:29;-0.20;99.90
7204;DHT22;3643;52.460;13.322;2023-02-10T04:02:58;-0.20;99.90
7204;DHT22;3643;52.460;13.322;2023-02-10T04:05:26;0.00;99.90
7204;DHT22;3643;52.460;13.322;2023-02-10T04:07:56;0.00;99.90
7204;DHT22;3643;52.460;13.322;2023-02-10T04:10:24;0.10;99.90
7204;DHT22;3643;52.460;13.322;2023-02-10T04:12:53;0.10;99.90
7204;DHT22;3643;52.460;13.322;2023-02-10T04:15:21;0.20;99.90
7204;DHT22;3643;52.460;13.322;2023-02-10T04:17:49;0.30;99.90
7204;DHT22;3643;52.460;13.322;2023-02-10T04:20:18;0.40;99.90
7204;DHT22;3643;52.460;13.322;2023-02-10T04:22:46;0.40;99.90
7204;DHT22;3643;52.460;13.322;2023-02-10T04:25:16;0.40;99.90
7204;DHT22;3643;52.460;13.322;2023-02-10T04:27:44;0.50;99.90
7204;DHT22;3643;52.460;13.322;2023-02-10T04:30:13;0.50;99.90
7204;DHT22;3643;52.460;13.322;2023-02-10T04:32:41;0.60;99.90
7204;DHT22;3643;52.460;13.322;2023-02-10T04:35:10;0.60;99.90
7204;DHT22;3643;52.460;13.322;2023-02-10T04:37:38;0.60;99.90
7204;DHT22;3643;52.460;13.322;2023-02-10T04:40:08;0.60;99.90
7204;DHT22;3643;52.460;13.322;2023-02-10T04:42:37;0.70;99.90
7204;DHT22;3643;52.460;13.322;2023-02-10T04:45:07;0.70;99.90
7204;DHT22;3643;52.460;13.322;2023-02-10T04:47:35;0.70;99.90
7204;DHT22;3643;52.460;13.322;2023-02-10T04:50:05;0.70;99.90
7204;DHT22;3643;52.460;13.322;2023-02-10T04:52:33;0.70;99.90
7204;DHT22;3643;52.460;13.322;2023-02-10T04:55:02;0.70;99.90
7204;DHT22;3643;52.460;13.322;2023-02-10T04:57:30;0.70;99.90
7204;DHT22;3643;52.460;13.322;2023-02-10T05:00:00;0.70;99.90
7204;DHT22;3643;52.460;13.322;2023-02-10T05:02:28;0.80;99.90
7204;DHT22;3643;52.460;13.322;2023-02-10T05:04:57;0.80;99.90
7204;DHT22;3643;52.460;13.322;2023-02-10T05:07:25;0.80;99.90
7204;DHT22;3643;52.460;13.322;2023-02-10T05:09:54;0.80;99.90
7204;DHT22;3643;52.460;13.322;2023-02-10T05:12:24;0.80;99.90
7204;DHT22;3643;52.460;13.322;2023-02-10T05:14:53;0.80;99.90
7204;DHT22;3643;52.460;13.322;2023-02-10T05:17:22;0.90;99.90
7204;DHT22;3643;52.460;13.322;2023-02-10T05:19:50;0.80;99.90
7204;DHT22;3643;52.460;13.322;2023-02-10T05:22:18;0.80;99.90
7204;DHT22;3643;52.460;13.322;2023-02-10T05:24:48;0.90;99.90
7204;DHT22;3643;52.460;13.322;2023-02-10T05:27:18;1.60;99.90
7204;DHT22;3643;52.460;13.322;2023-02-10T05:29:46;0.90;99.90
7204;DHT22;3643;52.460;13.322;2023-02-10T05:32:14;0.90;99.90
7204;DHT22;3643;52.460;13.322;2023-02-10T05:34:43;0.90;99.90
7204;DHT22;3643;52.460;13.322;2023-02-10T05:37:12;0.90;99.90
7204;DHT22;3643;52.460;13.322;2023-02-10T05:39:40;0.90;99.90
7204;DHT22;3643;52.460;13.322;2023-02-10T05:42:08;0.80;99.90
7204;DHT22;3643;52.460;13.322;2023-02-10T05:44:36;0.90;99.90
7204;DHT22;3643;52.460;13.322;2023-02-10T05:47:04;0.90;99.90
7204;DHT22;3643;52.460;13.322;2023-02-10T05:49:32;0.90;99.90
7204;DHT22;3643;52.460;13.322;2023-02-10T05:52:02;0.90;99.90
7204;DHT22;3643;52.460;13.322;2023-02-10T05:54:30;0.90;99.90
7204;DHT22;3643;52.460;13.322;2023-02-10T05:56:58;0.80;99.90
7204;DHT22;3643;52.460;13.322;2023-02-10T05:59:26;0.80;99.90
7204;DHT22;3643;52.460;13.322;2023-02-10T06:01:55;0.70;99.90
7204;DHT22;3643;52.460;13.322;2023-02-10T06:04:23;0.70;99.90
7204;DHT22;3643;52.460;13.322;2023-02-10T06:06:51;0.60;99.90
7204;DHT22;3643;52.460;13.322;2023-02-10T06:09:20;0.50;99.90
7204;DHT22;3643;52.460;13.322;2023-02-10T06:11:49;0.40;99.90
7204;DHT22;3643;52.460;13.322;2023-02-10T06:14:18;0.30;99.90
7204;DHT22;3643;52.460;13.322;2023-02-10T06:16:46;0.30;99.90
7204;DHT22;3643;52.460;13.322;2023-02-10T06:19:14;0.20;99.90
7204;DHT22;3643;52.460;13.322;2023-02-10T06:21:46;0.20;99.90
7204;DHT22;3643;52.460;13.322;2023-02-10T06:24:14;0.20;99.90
7204;DHT22;3643;52.460;13.322;2023-02-10T06:26:44;0.10;99.90
7204;DHT22;3643;52.460;13.322;2023-02-10T06:29:12;0.20;99.90
7204;DHT22;3643;52.460;13.322;2023-02-10T06:31:40;0.20;99.90
7204;DHT22;3643;52.460;13.322;2023-02-10T06:34:08;0.30;99.90
7204;DHT22;3643;52.460;13.322;2023-02-10T06:36:36;0.20;99.90
7204;DHT22;3643;52.460;13.322;2023-02-10T06:39:04;0.20;99.90
7204;DHT22;3643;52.460;13.322;2023-02-10T06:41:33;0.20;99.90
7204;DHT22;3643;52.460;13.322;2023-02-10T06:44:02;0.20;99.90
7204;DHT22;3643;52.460;13.322;2023-02-10T06:46:31;0.20;99.90
7204;DHT22;3643;52.460;13.322;2023-02-10T06:48:59;0.20;99.90
7204;DHT22;3643;52.460;13.322;2023-02-10T06:51:29;0.30;99.90
7204;DHT22;3643;52.460;13.322;2023-02-10T06:53:57;0.10;99.90
7204;DHT22;3643;52.460;13.322;2023-02-10T06:56:25;0.20;99.90
7204;DHT22;3643;52.460;13.322;2023-02-10T06:58:53;0.20;99.90
7204;DHT22;3643;52.460;13.322;2023-02-10T07:01:23;0.20;99.90
7204;DHT22;3643;52.460;13.322;2023-02-10T07:03:51;0.30;99.90
7204;DHT22;3643;52.460;13.322;2023-02-10T07:06:19;0.20;99.90
7204;DHT22;3643;52.460;13.322;2023-02-10T07:08:47;0.30;99.90
7204;DHT22;3643;52.460;13.322;2023-02-10T07:11:17;0.40;99.90
7204;DHT22;3643;52.460;13.322;2023-02-10T07:13:46;0.40;99.90
7204;DHT22;3643;52.460;13.322;2023-02-10T07:16:14;0.50;99.90
7204;DHT22;3643;52.460;13.322;2023-02-10T07:18:45;0.60;99.90
7204;DHT22;3643;52.460;13.322;2023-02-10T07:21:13;0.70;99.90
7204;DHT22;3643;52.460;13.322;2023-02-10T07:23:41;0.80;99.90
7204;DHT22;3643;52.460;13.322;2023-02-10T07:26:09;0.90;99.90
7204;DHT22;3643;52.460;13.322;2023-02-10T07:28:38;0.90;99.90
7204;DHT22;3643;52.460;13.322;2023-02-10T07:31:06;1.00;99.90
7204;DHT22;3643;52.460;13.322;2023-02-10T07:33:35;1.30;99.90
7204;DHT22;3643;52.460;13.322;2023-02-10T07:36:06;1.20;99.90
7204;DHT22;3643;52.460;13.322;2023-02-10T07:38:35;1.30;99.90
7204;DHT22;3643;52.460;13.322;2023-02-10T07:41:04;1.40;99.90
7204;DHT22;3643;52.460;13.322;2023-02-10T07:43:33;1.50;99.90
7204;DHT22;3643;52.460;13.322;2023-02-10T07:46:01;1.70;99.90
7204;DHT22;3643;52.460;13.322;2023-02-10T07:48:29;1.80;99.90
7204;DHT22;3643;52.460;13.322;2023-02-10T07:50:57;1.90;99.90
7204;DHT22;3643;52.460;13.322;2023-02-10T07:53:27;2.00;99.90
7204;DHT22;3643;52.460;13.322;2023-02-10T07:55:57;2.10;99.90
7204;DHT22;3643;52.460;13.322;2023-02-10T07:58:25;2.00;99.90
7204;DHT22;3643;52.460;13.322;2023-02-10T08:00:54;2.00;99.90
7204;DHT22;3643;52.460;13.322;2023-02-10T08:03:22;2.00;99.90
7204;DHT22;3643;52.460;13.322;2023-02-10T08:05:50;2.10;99.90
7204;DHT22;3643;52.460;13.322;2023-02-10T08:08:19;2.10;99.90
7204;DHT22;3643;52.460;13.322;2023-02-10T08:10:48;2.20;99.90
7204;DHT22;3643;52.460;13.322;2023-02-10T08:13:16;2.30;99.90
7204;DHT22;3643;52.460;13.322;2023-02-10T08:15:44;2.50;99.90
7204;DHT22;3643;52.460;13.322;2023-02-10T08:18:13;2.60;99.90
7204;DHT22;3643;52.460;13.322;2023-02-10T08:20:41;2.70;99.90
7204;DHT22;3643;52.460;13.322;2023-02-10T08:23:14;2.90;99.90
7204;DHT22;3643;52.460;13.322;2023-02-10T08:25:42;2.90;99.90
7204;DHT22;3643;52.460;13.322;2023-02-10T08:28:12;2.90;99.90
7204;DHT22;3643;52.460;13.322;2023-02-10T08:30:40;3.10;99.90
7204;DHT22;3643;52.460;13.322;2023-02-10T08:33:08;3.20;99.90
7204;DHT22;3643;52.460;13.322;2023-02-10T08:35:37;3.20;99.90
7204;DHT22;3643;52.460;13.322;2023-02-10T08:38:05;3.30;99.90
7204;DHT22;3643;52.460;13.322;2023-02-10T08:40:33;3.30;99.90
7204;DHT22;3643;52.460;13.322;2023-02-10T08:43:01;3.40;99.90
7204;DHT22;3643;52.460;13.322;2023-02-10T08:45:31;3.50;99.90
7204;DHT22;3643;52.460;13.322;2023-02-10T08:47:59;3.50;99.90
7204;DHT22;3643;52.460;13.322;2023-02-10T08:50:27;3.60;99.90
7204;DHT22;3643;52.460;13.322;2023-02-10T08:52:56;3.60;99.90
7204;DHT22;3643;52.460;13.322;2023-02-10T08:55:24;3.70;99.90
7204;DHT22;3643;52.460;13.322;2023-02-10T08:57:52;3.90;99.90
7204;DHT22;3643;52.460;13.322;2023-02-10T09:00:20;3.90;99.90
7204;DHT22;3643;52.460;13.322;2023-02-10T09:02:50;3.90;99.90
7204;DHT22;3643;52.460;13.322;2023-02-10T09:05:20;3.90;99.90
7204;DHT22;3643;52.460;13.322;2023-02-10T09:07:48;4.10;99.90
7204;DHT22;3643;52.460;13.322;2023-02-10T09:10:16;4.30;99.90
7204;DHT22;3643;52.460;13.322;2023-02-10T09:12:44;4.40;99.90
7204;DHT22;3643;52.460;13.322;2023-02-10T09:15:13;4.60;99.90
7204;DHT22;3643;52.460;13.322;2023-02-10T09:17:41;4.70;99.90
7204;DHT22;3643;52.460;13.322;2023-02-10T09:20:11;4.70;99.90
7204;DHT22;3643;52.460;13.322;2023-02-10T09:22:40;4.60;99.90
7204;DHT22;3643;52.460;13.322;2023-02-10T09:25:08;4.50;99.90
7204;DHT22;3643;52.460;13.322;2023-02-10T09:27:36;4.40;99.90
7204;DHT22;3643;52.460;13.322;2023-02-10T09:30:05;4.20;99.90
7204;DHT22;3643;52.460;13.322;2023-02-10T09:32:33;4.10;99.90
7204;DHT22;3643;52.460;13.322;2023-02-10T09:35:01;4.10;99.90
7204;DHT22;3643;52.460;13.322;2023-02-10T09:37:31;4.00;99.90
7204;DHT22;3643;52.460;13.322;2023-02-10T09:39:59;4.10;99.90
7204;DHT22;3643;52.460;13.322;2023-02-10T09:42:40;4.10;99.90
7204;DHT22;3643;52.460;13.322;2023-02-10T09:45:16;4.20;99.90
7204;DHT22;3643;52.460;13.322;2023-02-10T09:47:48;4.20;99.90
7204;DHT22;3643;52.460;13.322;2023-02-10T09:50:30;4.20;99.90
7204;DHT22;3643;52.460;13.322;2023-02-10T09:53:07;4.30;99.90
7204;DHT22;3643;52.460;13.322;2023-02-10T09:55:39;4.30;99.90
7204;DHT22;3643;52.460;13.322;2023-02-10T09:58:16;4.40;99.90
7204;DHT22;3643;52.460;13.322;2023-02-10T10:00:47;4.50;99.90
7204;DHT22;3643;52.460;13.322;2023-02-10T10:03:18;4.50;99.90
7204;DHT22;3643;52.460;13.322;2023-02-10T10:05:55;4.60;99.90
7204;DHT22;3643;52.460;13.322;2023-02-10T10:08:32;4.60;99.90
7204;DHT22;3643;52.460;13.322;2023-02-10T10:11:05;4.70;99.90
7204;DHT22;3643;52.460;13.322;2023-02-10T10:13:37;4.70;99.90
7204;DHT22;3643;52.460;13.322;2023-02-10T10:16:26;4.70;99.90
7204;DHT22;3643;52.460;13.322;2023-02-10T10:19:06;4.70;99.90
7204;DHT22;3643;52.460;13.322;2023-02-10T10:21:46;4.80;99.90
7204;DHT22;3643;52.460;13.322;2023-02-10T10:27:19;5.00;99.90
7204;DHT22;3643;52.460;13.322;2023-02-10T10:29:52;5.00;99.90
7204;DHT22;3643;52.460;13.322;2023-02-10T10:32:31;4.90;99.90
7204;DHT22;3643;52.460;13.322;2023-02-10T10:35:05;5.10;99.90
7204;DHT22;3643;52.460;13.322;2023-02-10T10:37:39;5.00;99.90
7204;DHT22;3643;52.460;13.322;2023-02-10T10:40:15;5.00;99.90
7204;DHT22;3643;52.460;13.322;2023-02-10T10:42:46;5.20;99.90
7204;DHT22;3643;52.460;13.322;2023-02-10T10:45:17;5.20;99.90
7204;DHT22;3643;52.460;13.322;2023-02-10T10:47:49;5.20;99.90
7204;DHT22;3643;52.460;13.322;2023-02-10T10:50:20;5.20;99.90
7204;DHT22;3643;52.460;13.322;2023-02-10T10:52:51;5.10;99.90
7204;DHT22;3643;52.460;13.322;2023-02-10T10:55:24;5.10;99.90
7204;DHT22;3643;52.460;13.322;2023-02-10T10:57:54;5.10;99.90
7204;DHT22;3643;52.460;13.322;2023-02-10T11:00:25;5.20;99.90
7204;DHT22;3643;52.460;13.322;2023-02-10T11:02:59;5.20;99.90
7204;DHT22;3643;52.460;13.322;2023-02-10T11:05:30;5.20;99.90
7204;DHT22;3643;52.460;13.322;2023-02-10T11:07:59;5.30;99.90
7204;DHT22;3643;52.460;13.322;2023-02-10T11:10:32;5.40;99.90
7204;DHT22;3643;52.460;13.322;2023-02-10T11:13:03;5.40;99.90
7204;DHT22;3643;52.460;13.322;2023-02-10T11:15:38;5.50;99.90
7204;DHT22;3643;52.460;13.322;2023-02-10T11:18:15;5.50;99.90
7204;DHT22;3643;52.460;13.322;2023-02-10T11:20:52;5.60;99.90
7204;DHT22;3643;52.460;13.322;2023-02-10T11:23:21;5.60;99.90
7204;DHT22;3643;52.460;13.322;2023-02-10T11:25:59;5.60;99.90
7204;DHT22;3643;52.460;13.322;2023-02-10T11:28:29;5.40;99.90
7204;DHT22;3643;52.460;13.322;2023-02-10T11:31:02;5.10;99.90
7204;DHT22;3643;52.460;13.322;2023-02-10T11:33:33;5.20;99.90
7204;DHT22;3643;52.460;13.322;2023-02-10T11:36:05;5.30;99.90
7204;DHT22;3643;52.460;13.322;2023-02-10T11:38:35;5.40;99.90
7204;DHT22;3643;52.460;13.322;2023-02-10T11:41:07;5.50;99.90
7204;DHT22;3643;52.460;13.322;2023-02-10T11:43:39;5.40;99.90
7204;DHT22;3643;52.460;13.322;2023-02-10T11:46:19;5.30;99.90
7204;DHT22;3643;52.460;13.322;2023-02-10T11:48:53;5.30;99.90
7204;DHT22;3643;52.460;13.322;2023-02-10T11:51:22;5.30;99.90
7204;DHT22;3643;52.460;13.322;2023-02-10T11:53:51;5.40;99.90
7204;DHT22;3643;52.460;13.322;2023-02-10T11:56:24;5.50;99.90
7204;DHT22;3643;52.460;13.322;2023-02-10T11:59:29;5.60;99.90
7204;DHT22;3643;52.460;13.322;2023-02-10T12:02:02;5.80;99.90
7204;DHT22;3643;52.460;13.322;2023-02-10T12:04:42;5.80;99.90
7204;DHT22;3643;52.460;13.322;2023-02-10T12:07:18;5.70;99.90
7204;DHT22;3643;52.460;13.322;2023-02-10T12:09:52;5.70;99.90
7204;DHT22;3643;52.460;13.322;2023-02-10T12:12:30;5.70;99.90
7204;DHT22;3643;52.460;13.322;2023-02-10T12:15:07;5.80;99.90
7204;DHT22;3643;52.460;13.322;2023-02-10T12:17:47;5.90;99.90
7204;DHT22;3643;52.460;13.322;2023-02-10T12:20:29;5.90;99.90
7204;DHT22;3643;52.460;13.322;2023-02-10T12:23:18;6.00;99.90
7204;DHT22;3643;52.460;13.322;2023-02-10T12:25:58;6.20;99.90
7204;DHT22;3643;52.460;13.322;2023-02-10T12:28:39;6.30;99.90
7204;DHT22;3643;52.460;13.322;2023-02-10T12:31:17;6.30;99.90
7204;DHT22;3643;52.460;13.322;2023-02-10T12:34:04;6.40;99.90
7204;DHT22;3643;52.460;13.322;2023-02-10T12:36:42;6.40;99.90
7204;DHT22;3643;52.460;13.322;2023-02-10T12:39:21;6.40;99.90
7204;DHT22;3643;52.460;13.322;2023-02-10T12:41:58;6.40;99.90
7204;DHT22;3643;52.460;13.322;2023-02-10T12:44:38;6.40;99.90
7204;DHT22;3643;52.460;13.322;2023-02-10T12:47:18;6.30;99.90
7204;DHT22;3643;52.460;13.322;2023-02-10T12:49:58;6.30;99.90
7204;DHT22;3643;52.460;13.322;2023-02-10T12:52:32;6.40;99.90
7204;DHT22;3643;52.460;13.322;2023-02-10T12:55:05;6.40;99.90
7204;DHT22;3643;52.460;13.322;2023-02-10T12:57:43;6.40;99.90
7204;DHT22;3643;52.460;13.322;2023-02-10T13:00:15;6.40;99.90
7204;DHT22;3643;52.460;13.322;2023-02-10T13:02:51;6.40;99.90
7204;DHT22;3643;52.460;13.322;2023-02-10T13:05:25;6.40;99.90
7204;DHT22;3643;52.460;13.322;2023-02-10T13:07:57;6.30;99.90
7204;DHT22;3643;52.460;13.322;2023-02-10T13:10:32;6.30;99.90
7204;DHT22;3643;52.460;13.322;2023-02-10T13:13:04;6.30;99.90
7204;DHT22;3643;52.460;13.322;2023-02-10T13:15:38;6.40;99.90
7204;DHT22;3643;52.460;13.322;2023-02-10T13:18:17;6.30;99.90
7204;DHT22;3643;52.460;13.322;2023-02-10T13:20:55;6.90;99.90
7204;DHT22;3643;52.460;13.322;2023-02-10T13:23:31;6.30;99.90
7204;DHT22;3643;52.460;13.322;2023-02-10T13:29:06;6.20;99.90
7204;DHT22;3643;52.460;13.322;2023-02-10T13:31:58;6.20;99.90
7204;DHT22;3643;52.460;13.322;2023-02-10T13:34:34;6.20;99.90
7204;DHT22;3643;52.460;13.322;2023-02-10T13:37:06;6.20;99.90
7204;DHT22;3643;52.460;13.322;2023-02-10T13:39:36;6.20;99.90
7204;DHT22;3643;52.460;13.322;2023-02-10T13:42:13;6.20;99.90
7204;DHT22;3643;52.460;13.322;2023-02-10T13:44:42;6.20;99.90
7204;DHT22;3643;52.460;13.322;2023-02-10T13:47:28;6.20;99.90
7204;DHT22;3643;52.460;13.322;2023-02-10T13:50:00;6.20;99.90
7204;DHT22;3643;52.460;13.322;2023-02-10T13:52:31;6.10;99.90
7204;DHT22;3643;52.460;13.322;2023-02-10T13:55:22;6.10;99.90
7204;DHT22;3643;52.460;13.322;2023-02-10T13:57:54;6.10;99.90
7204;DHT22;3643;52.460;13.322;2023-02-10T14:00:24;6.10;99.90
7204;DHT22;3643;52.460;13.322;2023-02-10T14:03:03;6.20;99.90
7204;DHT22;3643;52.460;13.322;2023-02-10T14:05:34;6.20;99.90
7204;DHT22;3643;52.460;13.322;2023-02-10T14:08:13;6.20;99.90
7204;DHT22;3643;52.460;13.322;2023-02-10T14:10:42;6.20;99.90
7204;DHT22;3643;52.460;13.322;2023-02-10T14:13:22;6.20;99.90
7204;DHT22;3643;52.460;13.322;2023-02-10T14:15:59;6.20;99.90
7204;DHT22;3643;52.460;13.322;2023-02-10T14:18:30;6.30;99.90
7204;DHT22;3643;52.460;13.322;2023-02-10T14:21:00;6.30;99.90
7204;DHT22;3643;52.460;13.322;2023-02-10T14:23:32;6.30;99.90
7204;DHT22;3643;52.460;13.322;2023-02-10T14:26:03;6.20;99.90
7204;DHT22;3643;52.460;13.322;2023-02-10T14:28:34;6.20;99.90
7204;DHT22;3643;52.460;13.322;2023-02-10T14:31:06;6.30;99.90
7204;DHT22;3643;52.460;13.322;2023-02-10T14:33:41;6.40;99.90
7204;DHT22;3643;52.460;13.322;2023-02-10T14:36:16;6.40;99.90
7204;DHT22;3643;52.460;13.322;2023-02-10T14:38:49;6.40;99.90
7204;DHT22;3643;52.460;13.322;2023-02-10T14:41:18;6.40;99.90
7204;DHT22;3643;52.460;13.322;2023-02-10T14:43:48;6.40;99.90
7204;DHT22;3643;52.460;13.322;2023-02-10T14:46:20;6.40;99.90
7204;DHT22;3643;52.460;13.322;2023-02-10T14:48:54;6.90;99.90
7204;DHT22;3643;52.460;13.322;2023-02-10T14:51:25;6.30;99.90
7204;DHT22;3643;52.460;13.322;2023-02-10T14:53:54;6.20;99.90
7204;DHT22;3643;52.460;13.322;2023-02-10T14:56:24;6.10;99.90
7204;DHT22;3643;52.460;13.322;2023-02-10T14:58:53;6.10;99.90
7204;DHT22;3643;52.460;13.322;2023-02-10T15:01:24;6.00;99.90
7204;DHT22;3643;52.460;13.322;2023-02-10T15:03:55;5.90;99.90
7204;DHT22;3643;52.460;13.322;2023-02-10T15:06:27;5.90;99.90
7204;DHT22;3643;52.460;13.322;2023-02-10T15:08:59;5.80;99.90
7204;DHT22;3643;52.460;13.322;2023-02-10T15:11:32;5.70;99.90
7204;DHT22;3643;52.460;13.322;2023-02-10T15:14:23;5.70;99.90
7204;DHT22;3643;52.460;13.322;2023-02-10T15:16:57;5.70;99.90
7204;DHT22;3643;52.460;13.322;2023-02-10T15:19:27;5.60;99.90
7204;DHT22;3643;52.460;13.322;2023-02-10T15:21:56;5.50;99.90
7204;DHT22;3643;52.460;13.322;2023-02-10T15:24:27;5.40;99.90
7204;DHT22;3643;52.460;13.322;2023-02-10T15:27:08;5.40;99.90
7204;DHT22;3643;52.460;13.322;2023-02-10T15:29:36;5.40;99.90
7204;DHT22;3643;52.460;13.322;2023-02-10T15:32:16;5.30;99.90
7204;DHT22;3643;52.460;13.322;2023-02-10T15:34:47;5.20;99.90
7204;DHT22;3643;52.460;13.322;2023-02-10T15:37:18;5.10;99.90
7204;DHT22;3643;52.460;13.322;2023-02-10T15:39:55;5.00;99.90
7204;DHT22;3643;52.460;13.322;2023-02-10T15:42:27;5.00;99.90
7204;DHT22;3643;52.460;13.322;2023-02-10T15:45:00;4.80;99.90
7204;DHT22;3643;52.460;13.322;2023-02-10T15:47:43;4.70;99.90
7204;DHT22;3643;52.460;13.322;2023-02-10T15:50:14;4.70;99.90
7204;DHT22;3643;52.460;13.322;2023-02-10T15:52:43;4.60;99.90
7204;DHT22;3643;52.460;13.322;2023-02-10T15:55:18;4.50;99.90
7204;DHT22;3643;52.460;13.322;2023-02-10T15:57:47;4.40;99.90
7204;DHT22;3643;52.460;13.322;2023-02-10T16:00:22;4.40;99.90
7204;DHT22;3643;52.460;13.322;2023-02-10T16:02:51;4.30;99.90
7204;DHT22;3643;52.460;13.322;2023-02-10T16:05:21;4.20;99.90
7204;DHT22;3643;52.460;13.322;2023-02-10T16:07:51;4.20;99.90
7204;DHT22;3643;52.460;13.322;2023-02-10T16:10:21;4.20;99.90
7204;DHT22;3643;52.460;13.322;2023-02-10T16:12:50;4.10;99.90
7204;DHT22;3643;52.460;13.322;2023-02-10T16:15:20;4.10;99.90
7204;DHT22;3643;52.460;13.322;2023-02-10T16:17:51;4.00;99.90
7204;DHT22;3643;52.460;13.322;2023-02-10T16:20:24;4.00;99.90
7204;DHT22;3643;52.460;13.322;2023-02-10T16:22:52;3.90;99.90
7204;DHT22;3643;52.460;13.322;2023-02-10T16:25:23;3.80;99.90
7204;DHT22;3643;52.460;13.322;2023-02-10T16:27:51;3.80;99.90
7204;DHT22;3643;52.460;13.322;2023-02-10T16:30:21;3.70;99.90
7204;DHT22;3643;52.460;13.322;2023-02-10T16:32:51;3.80;99.90
7204;DHT22;3643;52.460;13.322;2023-02-10T16:35:22;3.70;99.90
7204;DHT22;3643;52.460;13.322;2023-02-10T16:37:51;3.70;99.90